Time;durP1;ratioP1;P1;durP2;ratioP2;P2;SDS_P1;SDS_P2;PMS_P1;PMS_P2;Temp;Humidity;BMP_temperature;BMP_pressure;BME280_temperature;BME280_humidity;BME280_pressure;Samples;Min_cycle;Max_cycle;Signal;HPM_P1;HPM_P2
2022/08/30 00:01:24;;;;;;;10.70;5.10;;;;;;;19.39;55.32;99364.33;237635;1191;139629;-57
2022/08/30 00:06:29;;;;;;;11.10;4.50;;;;;;;19.33;55.27;99369.04;238765;1192;139769;-56
2022/08/30 00:11:32;;;;;;;9.20;5.40;;;;;;;19.27;55.52;99367.48;239033;1192;138891;-57
2022/08/30 00:16:35;;;;;;;11.00;4.30;;;;;;;19.14;55.56;99372.00;238939;1191;139129;-57
2022/08/30 00:21:39;;;;;;;9.00;4.50;;;;;;;19.05;55.71;99376.27;238967;1191;139022;-58
2022/08/30 00:26:42;;;;;;;12.10;4.80;;;;;;;18.99;55.72;99375.19;238938;1190;140944;-57
2022/08/30 00:31:45;;;;;;;11.10;5.30;;;;;;;18.89;55.80;99381.36;238868;1191;139673;-56
2022/08/30 00:36:48;;;;;;;14.50;5.50;;;;;;;18.86;56.05;99383.27;238871;1191;141619;-57
2022/08/30 00:41:51;;;;;;;13.00;5.20;;;;;;;18.85;56.04;99388.15;239138;1191;141229;-56
2022/08/30 00:46:54;;;;;;;13.20;5.00;;;;;;;18.84;56.16;99385.59;239032;1191;138778;-56
2022/08/30 00:51:57;;;;;;;11.10;5.00;;;;;;;18.83;56.24;99380.29;238625;1192;139713;-57
2022/08/30 00:57:02;;;;;;;10.70;4.90;;;;;;;18.82;56.32;99384.17;238947;1191;139247;-58
2022/08/30 01:02:06;;;;;;;11.00;4.80;;;;;;;18.77;56.38;99382.25;238843;1192;138823;-57
2022/08/30 01:07:09;;;;;;;12.20;5.30;;;;;;;18.70;56.35;99378.91;239005;1191;140764;-57
2022/08/30 01:12:12;;;;;;;14.60;4.90;;;;;;;18.63;56.53;99376.49;238653;1192;139039;-57
2022/08/30 01:17:19;;;;;;;13.20;5.10;;;;;;;18.54;56.62;99377.45;238724;1192;139067;-58
2022/08/30 01:22:49;;;;;;;12.70;5.20;;;;;;;18.46;56.90;99374.59;239044;1190;139567;-60
2022/08/30 01:28:04;;;;;;;8.70;4.40;;;;;;;18.41;57.06;99373.80;239045;1191;139486;-58
2022/08/30 01:33:09;;;;;;;8.70;4.50;;;;;;;18.36;56.94;99370.42;238242;1191;139437;-58
2022/08/30 01:38:14;;;;;;;12.10;5.10;;;;;;;18.31;56.99;99365.19;239058;1191;139388;-56
2022/08/30 01:43:18;;;;;;;10.40;5.10;;;;;;;18.28;57.24;99372.99;238727;1192;141071;-60
2022/08/30 01:48:21;;;;;;;8.30;4.80;;;;;;;18.25;57.22;99373.93;238501;1192;141158;-60
2022/08/30 01:53:32;;;;;;;11.50;4.90;;;;;;;18.27;57.44;99369.83;239192;1191;139256;-58
2022/08/30 01:58:36;;;;;;;15.50;4.90;;;;;;;18.27;57.61;99368.92;238887;1191;139038;-59
2022/08/30 02:03:42;;;;;;;11.30;4.70;;;;;;;18.27;57.52;99366.93;238788;1192;139102;-59
2022/08/30 02:08:45;;;;;;;;;;;;;;;18.27;57.71;99366.77;238950;1192;139023;-60
2022/08/30 02:13:49;;;;;;;9.60;4.80;;;;;;;18.22;57.63;99364.38;238833;1191;125079;-60
2022/08/30 02:18:54;;;;;;;10.70;5.30;;;;;;;18.14;57.72;99360.67;238789;1191;138873;-60
2022/08/30 02:23:57;;;;;;;;;;;;;;;18.08;57.77;99356.08;238764;1191;139819;-60
2022/08/30 02:29:04;;;;;;;12.20;4.80;;;;;;;17.96;57.78;99360.92;239129;1191;125332;-61
2022/08/30 02:34:07;;;;;;;13.10;5.20;;;;;;;17.89;57.97;99369.92;238735;1192;139129;-60
2022/08/30 02:39:12;;;;;;;12.30;5.50;;;;;;;17.86;57.92;99365.13;238765;1192;140003;-55
2022/08/30 02:44:15;;;;;;;12.50;5.30;;;;;;;17.80;58.05;99356.19;239052;1191;139335;-57
2022/08/30 02:49:18;;;;;;;9.00;5.10;;;;;;;17.73;58.10;99352.59;238860;1192;139245;-57
2022/08/30 02:54:36;;;;;;;11.70;5.40;;;;;;;17.75;58.21;99353.01;239014;1192;139868;-57
2022/08/30 02:59:42;;;;;;;15.90;5.80;;;;;;;17.75;58.41;99352.82;238952;1192;140231;-57
2022/08/30 03:04:46;;;;;;;11.70;5.80;;;;;;;17.70;58.26;99358.03;239008;1190;140144;-57
2022/08/30 03:09:49;;;;;;;15.30;6.00;;;;;;;17.66;58.59;99360.71;238957;1192;138981;-57
2022/08/30 03:14:53;;;;;;;12.20;6.00;;;;;;;17.64;58.77;99358.80;238681;1190;139966;-57
2022/08/30 03:20:00;;;;;;;12.60;6.10;;;;;;;17.68;59.06;99357.89;238981;1191;142749;-57
2022/08/30 03:25:07;;;;;;;14.40;6.30;;;;;;;17.68;58.89;99360.23;239054;1190;140030;-59
2022/08/30 03:30:11;;;;;;;25.50;15.60;;;;;;;17.63;58.89;99365.35;238168;1191;139581;-57
2022/08/30 03:35:16;;;;;;;15.20;7.00;;;;;;;17.56;59.01;99368.80;238864;1191;139713;-57
2022/08/30 03:40:20;;;;;;;18.70;6.80;;;;;;;17.53;59.12;99368.37;238613;1192;141185;-59
2022/08/30 03:45:25;;;;;;;13.00;6.00;;;;;;;17.56;59.30;99369.21;238721;1191;141090;-60
2022/08/30 03:50:29;;;;;;;13.10;6.20;;;;;;;17.57;59.50;99373.76;238550;1192;140289;-60
2022/08/30 03:55:32;;;;;;;13.10;6.50;;;;;;;17.52;59.38;99378.34;238738;1190;139797;-60
2022/08/30 04:00:36;;;;;;;12.10;7.20;;;;;;;17.43;59.37;99380.64;238918;1191;139861;-59
2022/08/30 04:05:39;;;;;;;13.30;6.60;;;;;;;17.41;59.60;99387.27;238898;1191;139321;-59
2022/08/30 04:10:42;;;;;;;136.40;109.20;;;;;;;17.46;60.06;99393.33;238767;1192;139699;-58
2022/08/30 04:15:46;;;;;;;18.40;10.80;;;;;;;17.61;60.14;99394.17;237392;1191;140522;-60
2022/08/30 04:20:50;;;;;;;13.20;8.00;;;;;;;17.71;59.92;99398.39;238565;1191;139720;-57
2022/08/30 04:25:54;;;;;;;17.80;8.20;;;;;;;17.83;60.09;99398.77;238845;1191;140182;-57
2022/08/30 04:30:57;;;;;;;39.70;28.50;;;;;;;18.02;60.15;99403.48;238886;1190;140335;-57
2022/08/30 04:36:06;;;;;;;13.40;7.70;;;;;;;18.25;60.10;99406.84;238951;1190;140896;-58
2022/08/30 04:41:15;;;;;;;14.50;9.40;;;;;;;18.38;59.55;99410.17;239180;1190;140063;-60
2022/08/30 04:46:18;;;;;;;10.80;7.20;;;;;;;18.57;60.10;99414.73;238736;1190;138701;-58
2022/08/30 04:51:21;;;;;;;92.70;70.70;;;;;;;18.80;59.55;99409.53;238766;1191;139293;-58
2022/08/30 04:56:25;;;;;;;16.20;8.40;;;;;;;18.77;59.11;99417.67;238952;1192;139182;-58
2022/08/30 05:01:31;;;;;;;33.70;20.10;;;;;;;18.89;59.26;99420.20;238847;1191;140313;-59
2022/08/30 05:06:47;;;;;;;14.10;7.20;;;;;;;18.98;58.97;99421.59;238835;1192;139755;-59
2022/08/30 05:11:50;;;;;;;14.70;7.60;;;;;;;18.94;58.38;99422.11;238877;1192;139551;-60
2022/08/30 05:16:53;;;;;;;20.30;7.60;;;;;;;18.78;58.15;99428.17;238610;1192;139289;-60
2022/08/30 05:21:56;;;;;;;16.20;7.90;;;;;;;18.60;58.19;99433.91;238876;1191;139907;-58
2022/08/30 05:26:59;;;;;;;24.40;13.40;;;;;;;18.53;58.36;99430.94;238809;1192;139462;-60
2022/08/30 05:32:03;;;;;;;15.20;7.40;;;;;;;18.48;58.52;99431.55;238718;1192;139683;-58
2022/08/30 05:37:06;;;;;;;19.20;6.90;;;;;;;18.42;58.74;99434.21;239030;1190;139363;-59
2022/08/30 05:42:09;;;;;;;16.60;7.40;;;;;;;18.39;58.66;99434.83;238980;1190;139766;-59
2022/08/30 05:47:12;;;;;;;12.00;7.00;;;;;;;18.41;58.94;99432.85;239068;1191;141347;-56
2022/08/30 05:52:17;;;;;;;15.10;7.10;;;;;;;18.47;59.10;99432.56;238916;1191;139226;-60
2022/08/30 05:57:20;;;;;;;16.50;7.20;;;;;;;18.51;59.05;99435.82;238912;1191;140520;-58
2022/08/30 06:02:23;;;;;;;20.50;8.10;;;;;;;18.56;59.22;99440.92;238886;1192;142167;-59
2022/08/30 06:07:27;;;;;;;23.70;7.90;;;;;;;18.63;59.22;99442.80;238873;1192;139598;-59
2022/08/30 06:12:30;;;;;;;88.00;62.20;;;;;;;18.71;59.25;99447.67;238982;1191;139672;-58
2022/08/30 06:17:33;;;;;;;19.80;12.20;;;;;;;18.96;59.84;99446.16;238508;1192;140473;-57
2022/08/30 06:22:37;;;;;;;16.30;7.80;;;;;;;19.18;59.55;99447.81;238750;1190;139370;-59
2022/08/30 06:27:41;;;;;;;19.20;8.20;;;;;;;19.20;59.02;99447.05;238576;1191;139529;-59
2022/08/30 06:32:44;;;;;;;14.30;7.50;;;;;;;19.22;59.02;99446.88;238961;1192;140883;-58
2022/08/30 06:37:47;;;;;;;22.50;8.60;;;;;;;19.23;59.02;99452.67;238944;1191;139400;-58
2022/08/30 06:42:50;;;;;;;17.30;8.00;;;;;;;19.28;59.07;99451.58;238868;1190;139188;-57
2022/08/30 06:47:53;;;;;;;39.90;26.90;;;;;;;19.37;58.90;99451.24;238912;1190;139631;-55
2022/08/30 06:53:03;;;;;;;19.90;10.20;;;;;;;19.60;59.56;99449.00;238950;1192;141864;-56
2022/08/30 06:58:06;;;;;;;15.60;8.00;;;;;;;19.83;59.38;99451.90;238979;1190;139339;-57
2022/08/30 07:03:09;;;;;;;212.90;149.50;;;;;;;19.97;59.14;99455.18;238162;1192;138996;-57
2022/08/30 07:08:12;;;;;;;27.20;12.90;;;;;;;20.14;59.06;99456.30;238939;1190;139916;-58
2022/08/30 07:13:16;;;;;;;25.80;15.50;;;;;;;20.34;59.36;99455.69;238679;1192;139859;-57
2022/08/30 07:23:43;;;;;;;21.40;11.10;;;;;;;20.89;58.87;99460.41;238542;1192;140087;-61
2022/08/30 07:28:46;;;;;;;17.40;7.80;;;;;;;20.89;58.14;99462.58;238857;1190;139682;-57
2022/08/30 07:33:54;;;;;;;13.70;6.50;;;;;;;20.91;57.86;99460.09;238956;1191;139677;-57
2022/08/30 07:38:57;;;;;;;14.20;7.10;;;;;;;20.93;57.75;99460.36;238375;1190;139699;-57
2022/08/30 07:44:00;;;;;;;103.50;77.10;;;;;;;20.96;57.56;99458.66;237772;1192;139035;-58
2022/08/30 07:49:04;;;;;;;17.20;12.30;;;;;;;21.00;57.96;99459.15;238739;1190;140199;-59
2022/08/30 07:54:13;;;;;;;15.60;8.00;;;;;;;21.22;58.56;99449.80;238734;1192;139609;-58
2022/08/30 07:59:16;;;;;;;17.20;7.80;;;;;;;21.41;58.74;99453.52;238990;1190;139256;-58
2022/08/30 08:04:19;;;;;;;15.20;8.30;;;;;;;21.66;58.85;99451.32;238680;1191;139641;-58
2022/08/30 08:09:22;;;;;;;15.90;6.90;;;;;;;21.93;58.61;99445.88;238569;1190;140265;-58
2022/08/30 08:14:27;;;;;;;9.90;6.50;;;;;;;22.09;57.87;99449.83;238578;1192;139797;-58
2022/08/30 08:19:30;;;;;;;289.00;208.60;;;;;;;22.23;57.74;99454.93;238729;1191;139604;-58
2022/08/30 08:24:33;;;;;;;18.70;10.80;;;;;;;22.35;57.41;99453.24;238611;1192;140037;-58
2022/08/30 08:29:36;;;;;;;8.40;5.50;;;;;;;22.45;57.03;99453.27;238885;1192;140205;-57
2022/08/30 08:34:40;;;;;;;10.30;5.20;;;;;;;22.46;56.49;99457.72;238694;1192;140119;-56
2022/08/30 08:39:43;;;;;;;10.00;5.20;;;;;;;22.49;56.22;99460.48;238653;1192;139291;-58
2022/08/30 08:44:49;;;;;;;9.60;5.10;;;;;;;22.44;55.97;99460.61;238531;1192;139476;-56
2022/08/30 08:50:01;;;;;;;15.30;6.30;;;;;;;22.52;56.30;99462.77;238767;1192;140332;-57
2022/08/30 08:55:12;;;;;;;14.10;6.20;;;;;;;22.68;56.55;99463.19;238834;1190;140061;-58
2022/08/30 09:00:15;;;;;;;67.50;44.50;;;;;;;22.83;56.16;99459.75;238674;1190;139321;-58
2022/08/30 09:05:24;;;;;;;212.40;160.40;;;;;;;22.88;55.53;99456.02;238948;1191;140475;-58
2022/08/30 09:10:30;;;;;;;15.00;10.60;;;;;;;22.99;55.81;99452.73;238817;1191;139890;-58
2022/08/30 09:15:53;;;;;;;12.60;7.10;;;;;;;22.98;55.22;99454.02;238350;1190;140138;-56
2022/08/30 09:21:04;;;;;;;;;;;;;;;22.86;54.85;99454.06;237177;1192;139872;-59
2022/08/30 09:26:08;;;;;;;9.20;5.60;;;;;;;22.78;55.08;99456.35;238998;1191;125257;-59
2022/08/30 09:31:21;;;;;;;8.60;5.30;;;;;;;22.76;55.36;99453.24;238065;1192;139802;-59
2022/08/30 09:36:31;;;;;;;10.50;6.80;;;;;;;22.82;55.52;99456.50;238876;1190;138999;-59
2022/08/30 09:41:40;;;;;;;12.50;7.00;;;;;;;22.92;55.72;99447.24;238590;1192;139601;-59
2022/08/30 09:46:50;;;;;;;8.70;5.20;;;;;;;23.19;56.14;99441.98;238541;1192;139520;-59
2022/08/30 09:52:31;;;;;;;14.70;5.50;;;;;;;23.32;55.26;99448.36;238898;1190;140155;-57
2022/08/30 09:57:47;;;;;;;13.80;5.80;;;;;;;23.31;55.03;99447.25;238451;1192;139608;-59
2022/08/30 10:03:11;;;;;;;10.10;5.20;;;;;;;23.47;54.79;99445.08;238048;1192;139995;-60
2022/08/30 10:08:25;;;;;;;100.00;86.10;;;;;;;23.71;54.55;99437.42;238880;1192;139894;-58
2022/08/30 10:13:47;;;;;;;10.70;5.00;;;;;;;23.95;54.33;99431.92;238429;1191;139698;-58
2022/08/30 10:19:15;;;;;;;15.50;7.70;;;;;;;24.26;54.18;99424.73;238417;1192;139776;-58
2022/08/30 10:24:26;;;;;;;12.10;7.20;;;;;;;24.53;53.86;99421.18;239096;1190;139523;-59
2022/08/30 10:29:41;;;;;;;7.10;4.20;;;;;;;24.86;54.03;99417.95;239014;1191;140100;-59
2022/08/30 10:34:55;;;;;;;13.40;4.60;;;;;;;24.86;53.24;99418.42;239156;1190;139740;-59
2022/08/30 10:41:11;;;;;;;8.30;4.40;;;;;;;24.78;52.62;99419.14;238558;1190;139518;-59
2022/08/30 10:45:31;;;;;;;13.70;5.30;;;;;;;24.75;52.40;99413.67;238698;1191;140251;-59
2022/08/30 10:50:41;;;;;;;10.10;5.60;;;;;;;24.94;52.94;99407.16;238725;1192;139245;-59
2022/08/30 10:55:50;;;;;;;39.10;31.60;;;;;;;25.18;53.06;99402.77;238879;1190;140646;-58
2022/08/30 11:01:15;;;;;;;8.70;6.60;;;;;;;25.34;52.51;99398.02;238671;1190;139174;-59
2022/08/30 11:06:35;;;;;;;6.70;3.90;;;;;;;25.24;51.76;99394.08;238611;1192;140433;-59
2022/08/30 11:11:57;;;;;;;14.90;10.70;;;;;;;25.08;51.19;99392.27;237845;1190;138941;-59
2022/08/30 11:17:00;;;;;;;15.80;12.10;;;;;;;25.00;51.89;99395.58;238871;1190;141015;-59
2022/08/30 11:22:23;;;;;;;10.00;5.90;;;;;;;24.85;52.28;99402.08;238145;1190;139620;-59
2022/08/30 11:27:49;;;;;;;18.10;4.30;;;;;;;24.98;52.45;99395.87;238409;1191;139124;-58
2022/08/30 11:33:25;;;;;;;5.60;3.10;;;;;;;24.98;52.14;99401.48;238915;1192;139043;-58
2022/08/30 11:38:28;;;;;;;4.00;2.50;;;;;;;24.84;51.90;99401.79;239043;1190;139294;-58
2022/08/30 11:43:34;;;;;;;3.10;2.10;;;;;;;24.58;51.89;99400.95;238059;1191;140387;-58
2022/08/30 11:48:45;;;;;;;4.00;2.30;;;;;;;24.38;52.04;99400.23;238622;1191;139507;-58
2022/08/30 11:54:22;;;;;;;5.10;2.50;;;;;;;24.61;52.75;99390.46;239004;1191;139849;-58
2022/08/30 11:59:43;;;;;;;3.70;2.50;;;;;;;25.18;52.75;99379.54;239213;1190;139694;-59
2022/08/30 12:04:49;;;;;;;27.40;15.90;;;;;;;25.69;52.08;99370.08;238645;1192;139703;-58
2022/08/30 12:09:52;;;;;;;5.90;3.40;;;;;;;25.64;51.16;99372.52;238760;1191;140398;-59
2022/08/30 12:14:56;;;;;;;2.40;2.20;;;;;;;25.66;51.12;99367.27;238757;1191;139723;-58
2022/08/30 12:19:59;;;;;;;6.10;2.50;;;;;;;26.03;50.78;99358.45;238670;1192;139762;-58
2022/08/30 12:25:18;;;;;;;2.70;2.10;;;;;;;26.37;50.38;99349.94;238908;1190;139619;-58
2022/08/30 12:30:26;;;;;;;17.40;12.80;;;;;;;26.69;49.81;99342.02;238819;1191;139971;-59
2022/08/30 12:35:30;;;;;;;5.90;2.50;;;;;;;27.06;49.42;99330.23;237838;1190;139931;-59
2022/08/30 12:40:33;;;;;;;2.90;1.90;;;;;;;27.37;48.98;99325.27;238496;1192;139454;-58
2022/08/30 12:45:42;;;;;;;4.80;2.00;;;;;;;27.69;48.54;99320.93;238896;1190;139328;-59
2022/08/30 12:50:51;;;;;;;4.30;1.90;;;;;;;28.03;47.97;99318.84;238805;1192;139599;-58
2022/08/30 12:56:00;;;;;;;4.30;2.20;;;;;;;28.39;47.21;99307.00;238556;1192;139126;-58
2022/08/30 13:01:16;;;;;;;3.40;1.90;;;;;;;28.35;45.86;99301.04;238790;1192;141134;-59
2022/08/30 13:06:52;;;;;;;4.70;2.20;;;;;;;27.95;44.97;99301.34;238762;1190;139429;-59
2022/08/30 13:11:58;;;;;;;4.30;1.90;;;;;;;27.85;45.14;99297.89;238903;1192;139158;-58
2022/08/30 13:17:17;;;;;;;2.90;1.90;;;;;;;28.09;45.21;99296.13;238876;1190;139908;-58
2022/08/30 13:22:27;;;;;;;3.10;1.80;;;;;;;28.48;44.84;99290.37;239033;1190;139435;-58
2022/08/30 13:27:31;;;;;;;2.60;1.80;;;;;;;28.37;44.07;99294.00;238321;1192;140041;-58
2022/08/30 13:32:39;;;;;;;5.10;1.70;;;;;;;27.79;44.06;99291.33;238287;1191;139718;-58
2022/08/30 13:37:42;;;;;;;3.70;1.80;;;;;;;27.31;44.40;99288.43;239010;1190;139657;-58
2022/08/30 13:42:54;;;;;;;4.30;2.00;;;;;;;26.95;44.85;99288.58;238944;1190;140588;-58
2022/08/30 13:47:59;;;;;;;2.90;1.90;;;;;;;27.20;45.28;99283.86;238594;1191;139318;-58
2022/08/30 13:53:02;;;;;;;7.40;2.50;;;;;;;27.52;45.31;99280.95;238759;1190;161825;-58
2022/08/30 13:58:05;;;;;;;4.00;2.20;;;;;;;27.63;44.80;99278.34;238871;1190;139042;-58
2022/08/30 14:03:12;;;;;;;12.60;11.00;;;;;;;27.25;44.53;99275.55;238681;1191;140011;-58
2022/08/30 14:08:22;;;;;;;31.40;28.00;;;;;;;27.08;44.87;99268.95;238790;1190;139895;-59
2022/08/30 14:13:46;;;;;;;3.20;2.20;;;;;;;27.42;45.27;99267.20;238741;1190;140288;-58
2022/08/30 14:19:11;;;;;;;8.20;2.80;;;;;;;27.54;44.92;99261.88;236537;1192;138898;-58
2022/08/30 14:24:14;;;;;;;20.10;3.60;;;;;;;27.40;44.63;99260.88;238468;1191;139520;-59
2022/08/30 14:29:24;;;;;;;11.80;2.90;;;;;;;27.11;44.60;99255.61;238901;1192;139855;-59
2022/08/30 14:34:30;;;;;;;6.10;2.50;;;;;;;26.85;44.74;99249.27;237835;1191;139741;-58
2022/08/30 14:39:34;;;;;;;5.30;2.60;;;;;;;26.46;44.76;99256.59;238190;1192;139841;-58
2022/08/30 14:44:38;;;;;;;7.60;2.30;;;;;;;26.20;44.92;99255.27;238280;1192;139384;-58
2022/08/30 14:49:59;;;;;;;5.70;2.10;;;;;;;26.04;45.07;99256.17;238576;1192;141376;-59
2022/08/30 14:55:05;;;;;;;3.40;2.30;;;;;;;25.93;45.47;99254.43;238446;1190;139972;-58
2022/08/30 15:00:12;;;;;;;5.40;2.20;;;;;;;25.84;45.40;99252.63;238894;1192;139304;-59
2022/08/30 15:05:16;;;;;;;5.70;2.40;;;;;;;25.75;45.68;99246.94;238853;1191;139312;-58
2022/08/30 15:10:20;;;;;;;41.90;33.10;;;;;;;25.68;45.61;99250.36;238658;1190;140048;-57
2022/08/30 15:15:24;;;;;;;3.90;3.30;;;;;;;25.57;45.73;99248.85;238692;1191;139625;-58
2022/08/30 15:20:29;;;;;;;4.80;2.30;;;;;;;25.45;45.69;99245.95;238741;1192;139790;-57
2022/08/30 15:25:32;;;;;;;3.00;2.20;;;;;;;25.37;45.93;99250.16;238834;1190;139526;-58
2022/08/30 15:30:35;;;;;;;4.10;1.90;;;;;;;25.27;46.10;99249.17;239060;1190;138947;-58
2022/08/30 15:35:38;;;;;;;255.70;222.10;;;;;;;25.19;46.19;99246.83;238095;1190;139477;-58
2022/08/30 15:40:43;;;;;;;19.40;16.10;;;;;;;25.14;46.48;99249.02;236896;1191;139519;-57
2022/08/30 15:45:46;;;;;;;15.30;8.30;;;;;;;25.08;46.76;99248.45;238143;1192;139756;-56
2022/08/30 15:50:56;;;;;;;11.00;6.70;;;;;;;25.03;47.19;99248.90;236913;1190;139845;-58
2022/08/30 15:55:59;;;;;;;11.70;5.10;;;;;;;24.96;47.31;99246.24;239093;1190;139652;-58
2022/08/30 16:01:04;;;;;;;5.70;3.30;;;;;;;24.90;47.25;99247.20;238915;1191;139772;-58
2022/08/30 16:06:18;;;;;;;17.80;8.80;;;;;;;24.87;47.62;99241.97;239105;1191;139278;-58
2022/08/30 16:11:23;;;;;;;5.90;3.30;;;;;;;24.88;47.51;99240.10;239214;1190;139423;-58
2022/08/30 16:16:27;;;;;;;5.70;2.70;;;;;;;24.89;47.53;99231.72;239051;1191;140719;-58
2022/08/30 16:21:32;;;;;;;3.70;2.50;;;;;;;24.86;47.45;99232.30;238949;1191;139931;-57
2022/08/30 16:26:36;;;;;;;6.00;2.70;;;;;;;24.80;47.47;99229.68;238906;1190;139462;-59
2022/08/30 16:31:42;;;;;;;4.80;2.10;;;;;;;24.74;47.57;99231.23;239040;1191;140056;-58
2022/08/30 16:36:46;;;;;;;268.90;227.50;;;;;;;24.70;47.63;99233.95;238849;1190;139544;-58
2022/08/30 16:41:49;;;;;;;19.30;16.20;;;;;;;24.69;47.81;99229.48;239111;1191;141478;-58
2022/08/30 16:46:52;;;;;;;8.80;3.70;;;;;;;24.69;47.92;99230.96;239092;1190;139972;-58
2022/08/30 16:51:55;;;;;;;5.30;2.70;;;;;;;24.64;47.98;99226.67;239144;1190;139308;-58
2022/08/30 16:56:59;;;;;;;3.50;2.50;;;;;;;24.57;47.96;99228.97;239073;1190;139029;-58
2022/08/30 17:02:02;;;;;;;5.30;3.10;;;;;;;24.50;48.27;99237.67;239013;1191;140297;-58
2022/08/30 17:07:06;;;;;;;4.70;2.80;;;;;;;24.44;48.35;99236.46;239124;1191;140538;-57
2022/08/30 17:12:15;;;;;;;7.70;3.30;;;;;;;24.39;48.33;99244.94;239056;1190;139678;-58
2022/08/30 17:17:18;;;;;;;5.20;2.90;;;;;;;24.34;48.31;99249.38;239216;1190;139498;-58
2022/08/30 17:22:23;;;;;;;6.70;2.90;;;;;;;24.26;48.19;99254.83;239160;1190;140361;-58
2022/08/30 17:27:27;;;;;;;4.70;2.40;;;;;;;24.13;48.02;99267.98;239066;1190;140103;-58
2022/08/30 17:32:30;;;;;;;6.00;2.80;;;;;;;23.99;48.17;99272.41;239038;1191;138948;-59
2022/08/30 17:37:34;;;;;;;8.50;2.70;;;;;;;23.85;48.19;99277.09;239053;1191;140253;-57
2022/08/30 17:42:37;;;;;;;142.50;116.10;;;;;;;23.72;48.19;99284.63;239103;1190;139748;-56
2022/08/30 17:47:41;;;;;;;183.60;164.40;;;;;;;23.62;48.39;99292.56;239151;1190;140221;-57
2022/08/30 17:52:44;;;;;;;11.70;8.60;;;;;;;23.56;48.61;99299.40;239035;1191;140882;-58
2022/08/30 17:57:48;;;;;;;9.10;7.00;;;;;;;23.54;48.85;99308.88;237974;1191;142569;-58
2022/08/30 18:02:53;;;;;;;8.40;4.70;;;;;;;23.52;48.88;99313.57;239020;1191;140834;-58
2022/08/30 18:07:57;;;;;;;10.40;3.90;;;;;;;23.45;48.86;99323.31;239086;1191;139107;-58
2022/08/30 18:13:02;;;;;;;7.70;5.50;;;;;;;23.33;49.03;99329.80;239106;1190;140678;-58
2022/08/30 18:18:07;;;;;;;5.90;4.20;;;;;;;23.28;49.25;99337.48;239199;1190;140002;-58
2022/08/30 18:23:15;;;;;;;6.10;4.10;;;;;;;23.24;49.35;99345.73;238503;1190;139168;-57
2022/08/30 18:28:18;;;;;;;11.70;4.20;;;;;;;23.17;49.64;99344.17;236735;1190;138771;-58
2022/08/30 18:33:23;;;;;;;8.90;4.80;;;;;;;23.10;49.77;99347.02;236841;1190;140344;-58
2022/08/30 18:38:27;;;;;;;4.80;3.90;;;;;;;23.06;50.02;99351.08;237358;1191;139265;-58
2022/08/30 18:43:30;;;;;;;5.80;3.70;;;;;;;23.01;49.99;99354.19;239101;1190;139163;-58
2022/08/30 18:48:33;;;;;;;7.00;3.80;;;;;;;22.95;50.09;99356.17;239083;1190;139261;-58
2022/08/30 18:53:37;;;;;;;4.50;3.80;;;;;;;22.87;50.00;99361.66;239166;1191;140500;-58
2022/08/30 18:58:43;;;;;;;4.40;3.50;;;;;;;22.81;50.10;99363.17;239080;1191;139566;-58
2022/08/30 19:03:46;;;;;;;5.00;3.30;;;;;;;22.73;50.23;99366.95;239063;1190;139307;-59
2022/08/30 19:08:50;;;;;;;6.50;3.80;;;;;;;22.68;50.30;99371.00;239090;1190;139654;-57
2022/08/30 19:13:53;;;;;;;5.60;3.90;;;;;;;22.63;50.40;99368.27;238954;1190;139656;-58
2022/08/30 19:18:57;;;;;;;6.30;4.10;;;;;;;22.55;50.38;99363.15;237569;1190;139815;-58
2022/08/30 19:24:00;;;;;;;4.40;3.30;;;;;;;22.48;50.50;99361.67;239187;1190;139081;-58
2022/08/30 19:29:04;;;;;;;5.30;3.40;;;;;;;22.43;50.68;99362.39;238923;1190;139604;-57
2022/08/30 19:34:08;;;;;;;4.00;3.50;;;;;;;22.40;50.78;99365.92;239124;1190;139386;-58
2022/08/30 19:39:11;;;;;;;83.60;72.10;;;;;;;22.36;50.80;99366.60;239187;1190;139337;-57
2022/08/30 19:44:14;;;;;;;4.20;3.80;;;;;;;22.31;50.57;99362.08;239079;1190;140484;-56
2022/08/30 19:49:17;;;;;;;4.30;3.10;;;;;;;22.16;50.40;99366.15;239089;1192;140088;-58
2022/08/30 19:54:20;;;;;;;6.00;3.10;;;;;;;22.03;50.54;99369.48;238914;1190;139682;-56
2022/08/30 19:59:23;;;;;;;4.00;2.80;;;;;;;21.89;50.58;99369.70;238850;1192;139669;-57
2022/08/30 20:04:26;;;;;;;2.60;2.20;;;;;;;21.75;50.76;99362.63;239020;1190;139910;-56
2022/08/30 20:09:29;;;;;;;2.80;2.50;;;;;;;21.61;50.92;99362.30;239084;1190;140460;-56
2022/08/30 20:14:32;;;;;;;4.00;2.50;;;;;;;21.51;51.10;99366.38;239163;1190;139512;-57
2022/08/30 20:19:35;;;;;;;3.50;2.30;;;;;;;21.40;51.24;99360.47;237104;1190;140345;-57
2022/08/30 20:24:39;;;;;;;4.20;2.50;;;;;;;21.31;51.42;99362.08;239151;1190;138673;-57
2022/08/30 20:29:45;;;;;;;3.60;2.30;;;;;;;21.27;51.64;99353.09;239270;1190;139078;-56
2022/08/30 20:34:52;;;;;;;4.70;3.00;;;;;;;21.24;51.79;99354.30;239104;1190;139254;-57
2022/08/30 20:39:56;;;;;;;3.20;2.10;;;;;;;21.19;51.81;99360.90;239081;1191;139081;-57
2022/08/30 20:44:59;;;;;;;8.20;2.60;;;;;;;21.12;51.99;99363.98;239092;1190;140910;-57
2022/08/30 20:50:07;;;;;;;6.30;2.00;;;;;;;21.03;52.15;99361.59;238330;1190;139480;-58
2022/08/30 20:55:16;;;;;;;5.70;2.30;;;;;;;20.99;52.39;99359.35;238186;1192;139032;-57
2022/08/30 21:00:20;;;;;;;3.30;2.50;;;;;;;20.94;52.43;99359.45;239014;1192;139821;-56
2022/08/30 21:05:24;;;;;;;3.00;2.40;;;;;;;20.92;52.54;99363.48;239205;1190;139130;-57
2022/08/30 21:10:27;;;;;;;5.70;2.70;;;;;;;20.87;52.60;99366.99;239165;1190;139410;-56
2022/08/30 21:15:32;;;;;;;3.50;2.60;;;;;;;20.83;52.68;99371.02;239025;1190;140516;-57
2022/08/30 21:20:40;;;;;;;5.20;2.80;;;;;;;20.80;52.97;99371.35;238214;1191;139900;-56
2022/08/30 21:25:43;;;;;;;5.20;2.70;;;;;;;20.73;52.99;99365.36;237480;1191;140141;-57
2022/08/30 21:30:46;;;;;;;4.10;2.30;;;;;;;20.68;53.09;99370.95;237010;1191;140634;-56
2022/08/30 21:41:11;;;;;;;4.70;3.10;;;;;;;20.56;53.30;99372.83;239123;1190;139076;-56
2022/08/30 21:46:15;;;;;;;3.70;2.00;;;;;;;20.52;53.37;99370.51;238898;1190;139530;-57
2022/08/30 21:51:19;;;;;;;4.40;2.20;;;;;;;20.46;53.56;99374.80;239196;1190;139849;-57
2022/08/30 21:56:22;;;;;;;5.60;2.90;;;;;;;20.38;53.48;99389.31;236854;1192;139014;-55
2022/08/30 22:01:28;;;;;;;4.90;3.80;;;;;;;20.25;53.51;99392.39;239047;1191;140302;-57
2022/08/30 22:06:33;;;;;;;5.60;3.40;;;;;;;20.13;53.81;99393.77;238862;1192;141505;-56
2022/08/30 22:11:36;;;;;;;7.60;3.90;;;;;;;19.96;54.08;99390.63;239163;1191;138709;-57
2022/08/30 22:16:40;;;;;;;5.20;3.20;;;;;;;19.83;54.45;99386.87;238077;1190;140179;-57
2022/08/30 22:21:46;;;;;;;4.80;3.20;;;;;;;19.72;54.62;99381.48;239246;1191;140516;-56
2022/08/30 22:26:50;;;;;;;5.70;3.30;;;;;;;19.62;54.82;99379.83;239210;1191;139240;-57
2022/08/30 22:31:53;;;;;;;5.30;3.20;;;;;;;19.58;55.00;99382.72;239007;1191;140272;-57
2022/08/30 22:36:57;;;;;;;7.60;4.00;;;;;;;19.58;55.31;99386.84;239109;1191;139849;-59
2022/08/30 22:42:01;;;;;;;5.60;3.50;;;;;;;19.57;55.58;99386.55;239228;1192;139559;-58
2022/08/30 22:47:04;;;;;;;5.90;3.60;;;;;;;19.59;55.83;99384.96;237540;1191;139179;-60
2022/08/30 22:52:08;;;;;;;4.50;3.30;;;;;;;19.60;55.86;99384.13;239112;1191;139616;-60
2022/08/30 22:57:14;;;;;;;7.80;3.20;;;;;;;19.57;55.98;99380.75;239187;1190;139790;-59
2022/08/30 23:02:17;;;;;;;5.30;3.10;;;;;;;19.53;55.92;99380.07;239234;1190;138797;-59
2022/08/30 23:07:21;;;;;;;6.30;3.00;;;;;;;19.47;56.10;99382.66;239191;1190;139854;-59
2022/08/30 23:12:25;;;;;;;6.60;3.20;;;;;;;19.40;56.17;99386.19;237396;1190;140523;-58
2022/08/30 23:17:28;;;;;;;7.40;3.30;;;;;;;19.34;56.46;99385.83;238561;1190;138644;-57
2022/08/30 23:22:40;;;;;;;5.20;3.20;;;;;;;19.29;56.56;99386.17;237788;1190;138871;-57
